createdAt,value
2019-01-09T00:00:32.664Z,79.83
2019-01-09T00:03:01.769Z,78.36
2019-01-09T00:05:30.643Z,80.06
2019-01-09T00:07:59.549Z,79.34
2019-01-09T00:10:31.338Z,79.41
2019-01-09T00:13:00.198Z,79.35
2019-01-09T00:15:29.751Z,78.79
2019-01-09T00:17:58.577Z,78.66
2019-01-09T00:20:27.806Z,77.15
2019-01-09T00:22:56.648Z,77.45
2019-01-09T00:25:25.627Z,77.93
2019-01-09T00:27:54.598Z,77.55
2019-01-09T00:30:23.542Z,76.41
2019-01-09T00:32:52.477Z,77.02
2019-01-09T00:35:21.492Z,76.07
2019-01-09T00:37:50.534Z,75.95
2019-01-09T00:40:19.788Z,75.81
2019-01-09T00:42:48.646Z,75.99
2019-01-09T00:45:17.618Z,76.11
2019-01-09T00:47:46.658Z,76.06
2019-01-09T00:50:15.497Z,75.87
2019-01-09T00:52:44.364Z,75.29
2019-01-09T00:55:13.436Z,74.20
2019-01-09T00:57:42.397Z,75.02
2019-01-09T01:00:13.742Z,75.00
2019-01-09T01:03:19.905Z,74.50
2019-01-09T01:06:22.168Z,74.17
2019-01-09T01:09:30.979Z,75.78
2019-01-09T01:12:47.265Z,74.75
2019-01-09T01:15:51.031Z,74.35
2019-01-09T01:18:55.418Z,74.29
2019-01-09T01:21:35.021Z,73.79
2019-01-09T01:25:06.054Z,73.88
2019-01-09T01:27:57.772Z,73.10
2019-01-09T01:31:11.933Z,73.01
2019-01-09T01:34:08.712Z,73.66
2019-01-09T01:37:00.213Z,73.49
2019-01-09T01:39:42.671Z,73.71
2019-01-09T01:42:49.165Z,73.69
2019-01-09T01:45:50.788Z,73.73
2019-01-09T01:48:44.785Z,73.70
2019-01-09T01:51:33.520Z,75.01
2019-01-09T01:54:15.965Z,74.75
2019-01-09T01:57:11.020Z,75.49
2019-01-09T01:59:52.353Z,75.56
2019-01-09T02:02:48.183Z,75.06
2019-01-09T02:05:44.818Z,76.05
2019-01-09T02:09:02.339Z,76.30
2019-01-09T02:12:01.082Z,75.74
2019-01-09T02:15:06.897Z,76.46
2019-01-09T02:17:56.511Z,75.01
2019-01-09T02:20:51.182Z,75.85
2019-01-09T02:23:54.933Z,74.85
2019-01-09T02:27:10.950Z,75.00
2019-01-09T02:30:22.778Z,75.44
2019-01-09T02:32:52.078Z,74.96
2019-01-09T02:35:20.943Z,75.07
2019-01-09T02:37:49.745Z,74.16
2019-01-09T02:40:18.924Z,74.41
2019-01-09T02:42:47.984Z,74.10
2019-01-09T02:45:17.152Z,74.53
2019-01-09T02:47:46.205Z,73.73
2019-01-09T02:50:15.075Z,73.91
2019-01-09T02:52:43.864Z,73.34
2019-01-09T02:55:13.027Z,74.13
2019-01-09T02:57:41.882Z,73.42
2019-01-09T03:00:12.530Z,74.47
2019-01-09T03:02:41.384Z,73.97
2019-01-09T03:05:10.237Z,72.88
2019-01-09T03:07:39.037Z,73.81
2019-01-09T03:10:08.368Z,72.98
2019-01-09T03:12:37.168Z,73.02
2019-01-09T03:15:06.187Z,72.54
2019-01-09T03:17:35.041Z,72.15
2019-01-09T03:20:04.292Z,71.99
2019-01-09T03:22:33.371Z,72.12
2019-01-09T03:25:02.298Z,72.08
2019-01-09T03:27:31.259Z,72.45
2019-01-09T03:30:00.417Z,72.16
2019-01-09T03:32:29.888Z,71.87
2019-01-09T03:34:58.784Z,72.96
2019-01-09T03:37:27.668Z,73.37
2019-01-09T03:39:56.529Z,73.30
2019-01-09T03:42:25.475Z,72.85
2019-01-09T03:44:54.346Z,72.87
2019-01-09T03:47:23.273Z,72.06
2019-01-09T03:49:52.045Z,72.64
2019-01-09T03:52:21.417Z,73.34
2019-01-09T03:54:50.194Z,74.57
2019-01-09T03:57:18.968Z,73.73
2019-01-09T03:59:48.025Z,73.37
2019-01-09T04:02:16.808Z,73.48
2019-01-09T04:04:45.596Z,73.40
2019-01-09T04:10:42.200Z,74.10
2019-01-09T04:13:11.134Z,74.68
2019-01-09T04:15:40.060Z,74.50
2019-01-09T04:18:09.177Z,74.73
2019-01-09T04:20:37.978Z,75.29
2019-01-09T04:23:06.760Z,75.37
2019-01-09T04:25:35.568Z,76.61
2019-01-09T04:28:04.366Z,78.23
2019-01-09T04:30:33.255Z,78.77
2019-01-09T04:33:02.062Z,78.61
2019-01-09T04:35:31.084Z,78.71
2019-01-09T04:37:59.955Z,79.11
2019-01-09T04:40:28.972Z,78.62
2019-01-09T04:42:57.748Z,78.70
2019-01-09T04:45:26.690Z,78.03
2019-01-09T04:47:55.499Z,77.97
2019-01-09T04:50:24.316Z,78.69
2019-01-09T04:52:53.094Z,77.44
2019-01-09T04:55:21.923Z,77.46
2019-01-09T04:57:50.713Z,75.52
2019-01-09T05:00:19.457Z,75.76
2019-01-09T05:02:48.268Z,75.42
2019-01-09T05:05:17.386Z,75.51
2019-01-09T05:07:46.287Z,74.74
2019-01-09T05:10:15.169Z,74.22
2019-01-09T05:12:43.976Z,73.87
2019-01-09T05:15:13.111Z,73.86
2019-01-09T05:17:42.009Z,73.12
2019-01-09T05:20:10.865Z,72.85
2019-01-09T05:22:39.637Z,73.33
2019-01-09T05:25:08.845Z,72.58
2019-01-09T05:27:37.634Z,72.67
2019-01-09T05:30:06.529Z,72.77
2019-01-09T05:32:35.328Z,73.02
2019-01-09T05:35:04.403Z,73.27
2019-01-09T05:37:33.213Z,73.40
2019-01-09T05:40:02.343Z,73.04
2019-01-09T05:42:31.205Z,73.08
2019-01-09T05:45:00.296Z,72.45
2019-01-09T05:47:29.065Z,72.69
2019-01-09T05:49:58.216Z,73.14
2019-01-09T05:52:26.990Z,72.54
2019-01-09T05:54:56.033Z,72.66
2019-01-09T05:57:25.145Z,73.05
2019-01-09T05:59:54.265Z,73.46
2019-01-09T06:02:23.320Z,73.60
2019-01-09T06:04:52.160Z,73.22
2019-01-09T06:07:20.953Z,74.19
2019-01-09T06:09:50.291Z,73.87
2019-01-09T06:12:19.407Z,74.08
2019-01-09T06:14:48.208Z,73.58
2019-01-09T06:17:17.122Z,73.52
2019-01-09T06:19:46.284Z,73.99
2019-01-09T06:22:15.057Z,74.23
2019-01-09T06:24:46.396Z,74.08
2019-01-09T06:27:15.543Z,75.04
2019-01-09T06:29:44.765Z,74.20
2019-01-09T06:32:13.922Z,74.17
2019-01-09T06:34:42.934Z,74.43
2019-01-09T06:37:11.840Z,73.92
2019-01-09T06:39:40.659Z,74.73
2019-01-09T06:42:09.488Z,73.32
2019-01-09T06:44:38.605Z,73.17
2019-01-09T06:47:07.464Z,74.06
2019-01-09T06:49:36.424Z,73.40
2019-01-09T06:52:05.401Z,73.43
2019-01-09T06:54:35.043Z,73.25
2019-01-09T06:57:03.980Z,73.08
2019-01-09T06:59:34.534Z,73.11
2019-01-09T07:02:03.293Z,73.21
2019-01-09T07:04:32.346Z,73.10
2019-01-09T07:07:01.352Z,72.22
2019-01-09T07:09:30.135Z,71.82
2019-01-09T07:11:59.357Z,71.68
2019-01-09T07:14:28.428Z,71.53
2019-01-09T07:16:57.270Z,70.84
2019-01-09T07:19:26.076Z,71.30
2019-01-09T07:21:54.900Z,71.46
2019-01-09T07:24:23.759Z,71.56
2019-01-09T07:26:52.915Z,71.47
2019-01-09T07:29:22.021Z,70.27
2019-01-09T07:31:50.810Z,71.35
2019-01-09T07:34:19.687Z,70.76
2019-01-09T07:36:48.493Z,71.52
2019-01-09T07:39:17.277Z,72.19
2019-01-09T07:41:46.133Z,71.12
2019-01-09T07:44:15.295Z,70.78
2019-01-09T07:46:44.438Z,70.55
2019-01-09T07:49:13.229Z,70.34
2019-01-09T07:51:42.003Z,71.11
2019-01-09T07:54:11.137Z,70.91
2019-01-09T07:57:16.722Z,70.44
2019-01-09T07:59:49.138Z,71.10
2019-01-09T08:02:17.964Z,69.70
2019-01-09T08:04:47.058Z,69.84
2019-01-09T08:07:16.156Z,70.48
2019-01-09T08:09:45.005Z,70.45
2019-01-09T08:12:13.910Z,69.56
2019-01-09T08:14:43.027Z,69.30
2019-01-09T08:17:12.034Z,69.35
2019-01-09T08:19:40.793Z,70.32
2019-01-09T08:22:09.673Z,70.00
2019-01-09T08:24:38.508Z,70.82
2019-01-09T08:27:07.618Z,71.30
2019-01-09T08:29:36.697Z,70.59
2019-01-09T08:32:05.625Z,70.52
2019-01-09T08:34:34.660Z,70.67
2019-01-09T08:37:03.528Z,71.58
2019-01-09T08:39:33.381Z,71.08
2019-01-09T08:42:02.143Z,71.49
2019-01-09T08:44:31.208Z,72.22
2019-01-09T08:50:28.405Z,72.08
2019-01-09T08:52:57.742Z,72.63
2019-01-09T08:55:26.799Z,72.49
2019-01-09T08:57:55.605Z,71.87
2019-01-09T09:00:24.410Z,71.90
2019-01-09T09:02:53.161Z,72.24
2019-01-09T09:05:21.944Z,72.07
2019-01-09T09:07:58.778Z,71.66
2019-01-09T09:10:27.901Z,72.15
2019-01-09T09:12:56.675Z,73.68
2019-01-09T09:15:25.473Z,76.11
2019-01-09T09:17:54.416Z,76.90
2019-01-09T09:20:23.878Z,78.03
2019-01-09T09:22:52.633Z,78.97
2019-01-09T09:25:21.507Z,79.61
2019-01-09T09:27:50.272Z,80.69
2019-01-09T09:30:19.497Z,81.27
2019-01-09T09:32:48.622Z,81.25
2019-01-09T09:35:17.746Z,81.11
2019-01-09T09:37:46.800Z,81.73
2019-01-09T09:40:18.029Z,81.85
2019-01-09T09:42:46.776Z,82.78
2019-01-09T09:45:15.748Z,81.71
2019-01-09T09:47:44.858Z,82.19
2019-01-09T09:50:14.743Z,82.55
2019-01-09T09:52:43.599Z,82.46
2019-01-09T09:55:13.115Z,82.20
2019-01-09T09:57:42.352Z,82.46
2019-01-09T10:00:15.381Z,82.68
2019-01-09T10:02:44.250Z,82.40
2019-01-09T10:05:13.125Z,82.66
2019-01-09T10:07:42.204Z,82.07
2019-01-09T10:10:12.085Z,81.70
2019-01-09T10:12:41.136Z,81.25
2019-01-09T10:15:11.120Z,81.33
2019-01-09T10:17:40.228Z,80.73
2019-01-09T10:20:11.789Z,80.46
2019-01-09T10:22:41.302Z,80.23
2019-01-09T10:25:10.562Z,79.66
2019-01-09T10:27:39.393Z,79.80
2019-01-09T10:30:12.286Z,79.51
2019-01-09T10:32:41.343Z,77.93
2019-01-09T10:35:10.382Z,77.89
2019-01-09T10:37:39.297Z,78.64
2019-01-09T10:40:09.768Z,78.03
2019-01-09T10:42:38.614Z,76.32
2019-01-09T10:45:08.263Z,75.73
2019-01-09T10:47:37.129Z,75.87
2019-01-09T10:50:10.039Z,75.91
2019-01-09T10:52:39.173Z,76.17
2019-01-09T10:55:08.848Z,75.39
2019-01-09T10:57:38.084Z,75.38
2019-01-09T11:00:09.813Z,76.11
2019-01-09T11:02:38.643Z,77.72
2019-01-09T11:05:08.860Z,79.44
2019-01-09T11:07:37.967Z,80.13
2019-01-09T11:10:07.373Z,81.13
2019-01-09T11:12:36.306Z,81.66
2019-01-09T11:15:06.238Z,81.53
2019-01-09T11:17:35.010Z,81.24
2019-01-09T11:20:08.118Z,81.34
2019-01-09T11:22:36.888Z,81.31
2019-01-09T11:25:08.100Z,80.34
2019-01-09T11:27:36.880Z,80.55
2019-01-09T11:30:07.872Z,81.31
2019-01-09T11:32:36.640Z,80.89
2019-01-09T11:35:05.802Z,80.09
2019-01-09T11:37:34.838Z,80.55
2019-01-09T11:40:04.574Z,79.98
2019-01-09T11:42:33.342Z,79.37
2019-01-09T11:45:02.113Z,80.29
2019-01-09T11:47:31.248Z,79.68
2019-01-09T11:50:01.412Z,79.45
2019-01-09T11:52:30.203Z,77.89
2019-01-09T11:54:59.272Z,78.87
2019-01-09T11:57:28.371Z,80.26
2019-01-09T11:59:57.414Z,80.57
2019-01-09T12:02:26.583Z,80.53
2019-01-09T12:04:55.365Z,80.57
2019-01-09T12:07:24.575Z,80.49
2019-01-09T12:09:53.709Z,80.36
2019-01-09T12:12:22.854Z,79.50
2019-01-09T12:14:51.674Z,79.58
2019-01-09T12:17:20.550Z,79.22
2019-01-09T12:19:49.407Z,79.28
2019-01-09T12:22:18.219Z,79.23
2019-01-09T12:24:46.994Z,78.78
2019-01-09T12:27:15.919Z,78.12
2019-01-09T12:29:44.906Z,78.49
2019-01-09T12:32:15.359Z,77.21
2019-01-09T12:34:44.257Z,76.51
2019-01-09T12:37:13.061Z,75.42
2019-01-09T12:39:41.850Z,76.26
2019-01-09T12:42:10.994Z,75.03
2019-01-09T12:44:40.158Z,75.00
2019-01-09T12:47:20.419Z,74.00
2019-01-09T12:49:49.225Z,74.41
2019-01-09T12:52:21.374Z,75.63
2019-01-09T12:54:50.284Z,76.20
2019-01-09T12:57:19.117Z,75.45
2019-01-09T12:59:48.702Z,75.89
2019-01-09T13:02:17.485Z,75.82
2019-01-09T13:04:46.782Z,76.95
2019-01-09T13:07:15.858Z,77.49
2019-01-09T13:09:45.741Z,77.44
2019-01-09T13:12:14.940Z,77.25
2019-01-09T13:14:43.696Z,77.08
2019-01-09T13:17:12.469Z,77.41
2019-01-09T13:19:41.224Z,78.93
2019-01-09T13:22:10.045Z,78.26
2019-01-09T13:24:38.931Z,78.87
2019-01-09T13:27:07.838Z,78.02
2019-01-09T13:33:04.007Z,77.48
2019-01-09T13:35:32.800Z,77.66
2019-01-09T13:38:03.989Z,76.95
2019-01-09T13:40:34.395Z,77.93
2019-01-09T13:43:03.310Z,78.76
2019-01-09T13:45:32.251Z,78.44
2019-01-09T13:48:01.170Z,78.66
2019-01-09T13:50:30.064Z,78.55
2019-01-09T13:52:58.942Z,78.02
2019-01-09T13:55:27.822Z,78.01
2019-01-09T13:57:56.756Z,77.89
2019-01-09T14:00:25.862Z,76.71
2019-01-09T14:02:55.733Z,76.44
2019-01-09T14:05:24.818Z,77.17
2019-01-09T14:07:54.289Z,78.22
2019-01-09T14:10:27.469Z,79.02
2019-01-09T14:12:56.326Z,79.96
2019-01-09T14:15:26.217Z,79.83
2019-01-09T14:17:55.208Z,79.06
2019-01-09T14:20:24.122Z,79.10
2019-01-09T14:22:53.241Z,79.18
2019-01-09T14:25:22.504Z,78.82
2019-01-09T14:27:51.281Z,77.74
2019-01-09T14:30:23.613Z,78.11
2019-01-09T14:32:52.425Z,78.32
2019-01-09T14:35:21.621Z,77.84
2019-01-09T14:37:50.639Z,77.54
2019-01-09T14:40:19.632Z,77.92
2019-01-09T14:42:48.743Z,77.95
2019-01-09T14:45:17.846Z,78.25
2019-01-09T14:47:46.769Z,78.59
2019-01-09T14:50:17.936Z,78.81
2019-01-09T14:52:47.057Z,80.01
2019-01-09T14:55:16.545Z,80.20
2019-01-09T14:57:45.913Z,81.54
2019-01-09T15:00:20.390Z,82.03
2019-01-09T15:02:50.187Z,81.60
2019-01-09T15:05:19.493Z,81.87
2019-01-09T15:07:48.709Z,81.45
2019-01-09T15:10:23.098Z,81.13
2019-01-09T15:12:52.104Z,81.14
2019-01-09T15:15:21.443Z,81.04
2019-01-09T15:17:50.270Z,80.42
2019-01-09T15:20:19.479Z,79.21
2019-01-09T15:22:48.373Z,78.71
2019-01-09T15:25:17.787Z,78.99
2019-01-09T15:27:46.628Z,77.62
2019-01-09T15:30:21.108Z,77.58
2019-01-09T15:32:50.026Z,78.41
2019-01-09T15:35:18.945Z,78.62
2019-01-09T15:37:47.821Z,78.50
2019-01-09T15:40:21.967Z,78.54
2019-01-09T15:42:50.876Z,78.74
2019-01-09T15:45:19.661Z,78.43
2019-01-09T15:47:48.507Z,77.78
2019-01-09T15:50:19.003Z,77.37
2019-01-09T15:52:48.051Z,76.52
2019-01-09T15:55:16.966Z,76.72
2019-01-09T15:57:46.081Z,76.45
2019-01-09T16:00:18.064Z,76.31
2019-01-09T16:02:47.007Z,75.72
2019-01-09T16:05:16.132Z,75.85
2019-01-09T16:07:45.266Z,76.00
2019-01-09T16:10:14.995Z,75.63
2019-01-09T16:12:43.805Z,75.68
2019-01-09T16:15:14.355Z,75.35
2019-01-09T16:17:43.767Z,75.82
2019-01-09T16:20:16.954Z,75.40
2019-01-09T16:22:44.077Z,74.61
2019-01-09T16:25:14.285Z,75.13
2019-01-09T16:31:32.314Z,75.57
2019-01-09T16:34:01.115Z,74.64
2019-01-09T16:36:30.923Z,74.29
2019-01-09T16:38:59.961Z,74.54
2019-01-09T16:41:29.157Z,74.27
2019-01-09T16:43:57.970Z,74.58
2019-01-09T16:46:26.732Z,74.02
2019-01-09T16:48:55.947Z,74.36
2019-01-09T16:51:24.833Z,73.85
2019-01-09T16:53:53.752Z,73.84
2019-01-09T16:56:22.929Z,74.05
2019-01-09T16:58:52.563Z,74.49
2019-01-09T17:01:21.817Z,74.31
2019-01-09T17:03:50.608Z,74.09
2019-01-09T17:06:19.561Z,74.26
2019-01-09T17:08:48.719Z,74.02
2019-01-09T17:11:17.680Z,73.81
2019-01-09T17:13:46.763Z,73.76
2019-01-09T17:16:15.722Z,73.82
2019-01-09T17:18:47.027Z,73.93
2019-01-09T17:21:19.137Z,73.67
2019-01-09T17:23:48.906Z,73.80
2019-01-09T17:26:17.900Z,73.78
2019-01-09T17:28:47.007Z,73.99
2019-01-09T17:31:16.253Z,73.12
2019-01-09T17:33:45.023Z,73.93
2019-01-09T17:36:14.289Z,74.38
2019-01-09T17:38:46.625Z,74.16
2019-01-09T17:41:15.818Z,74.17
2019-01-09T17:43:44.803Z,73.67
2019-01-09T17:46:13.829Z,74.00
2019-01-09T17:48:44.727Z,74.15
2019-01-09T17:51:13.648Z,74.40
2019-01-09T17:53:42.424Z,74.19
2019-01-09T17:56:11.516Z,74.60
2019-01-09T17:58:40.277Z,74.68
2019-01-09T18:01:09.457Z,74.31
2019-01-09T18:03:38.458Z,74.11
2019-01-09T18:06:13.717Z,74.54
2019-01-09T18:08:42.565Z,74.63
2019-01-09T18:11:12.442Z,75.11
2019-01-09T18:13:41.342Z,75.15
2019-01-09T18:16:10.107Z,74.69
2019-01-09T18:18:38.880Z,74.97
2019-01-09T18:21:13.923Z,74.36
2019-01-09T18:23:42.856Z,74.69
2019-01-09T18:26:12.039Z,74.84
2019-01-09T18:28:40.851Z,74.87
2019-01-09T18:32:05.771Z,75.66
2019-01-09T18:35:01.648Z,75.09
2019-01-09T18:37:54.410Z,75.84
2019-01-09T18:41:00.262Z,75.85
2019-01-09T18:43:55.075Z,75.56
2019-01-09T18:46:46.681Z,75.47
2019-01-09T18:49:49.610Z,75.75
2019-01-09T18:52:27.760Z,75.75
2019-01-09T18:54:56.545Z,75.80
2019-01-09T18:57:25.570Z,75.58
2019-01-09T18:59:54.437Z,75.27
2019-01-09T19:02:23.549Z,75.48
2019-01-09T19:04:52.578Z,74.41
2019-01-09T19:07:21.639Z,75.01
2019-01-09T19:09:50.489Z,74.92
2019-01-09T19:12:19.322Z,75.06
2019-01-09T19:14:48.117Z,74.81
2019-01-09T19:17:17.000Z,74.92
2019-01-09T19:19:45.873Z,75.20
2019-01-09T19:22:25.314Z,75.38
2019-01-09T19:24:54.495Z,75.35
2019-01-09T19:27:26.147Z,75.70
2019-01-09T19:29:55.030Z,75.43
2019-01-09T19:32:24.109Z,75.57
2019-01-09T19:34:53.028Z,75.54
2019-01-09T19:37:22.122Z,76.27
2019-01-09T19:39:51.410Z,76.08
2019-01-09T19:42:20.561Z,75.88
2019-01-09T19:44:49.573Z,76.27
2019-01-09T19:47:19.788Z,75.92
2019-01-09T19:49:48.928Z,76.26
2019-01-09T19:52:29.759Z,75.81
2019-01-09T19:54:58.613Z,75.70
2019-01-09T19:57:27.491Z,75.83
2019-01-09T19:59:56.557Z,75.59
2019-01-09T20:02:25.731Z,74.95
2019-01-09T20:04:54.882Z,75.45
2019-01-09T20:07:23.676Z,74.80
2019-01-09T20:09:52.498Z,74.99
2019-01-09T20:12:31.142Z,74.53
2019-01-09T20:15:00.723Z,75.05
2019-01-09T20:17:29.609Z,74.83
2019-01-09T20:19:58.970Z,74.47
2019-01-09T20:22:49.215Z,74.49
2019-01-09T20:25:18.925Z,74.80
2019-01-09T20:27:47.999Z,75.02
2019-01-09T20:30:36.665Z,75.69
2019-01-09T20:33:05.735Z,75.72
2019-01-09T20:35:34.837Z,75.05
2019-01-09T20:38:03.697Z,75.77
2019-01-09T20:40:32.672Z,75.89
2019-01-09T20:43:01.586Z,75.65
2019-01-09T20:45:30.578Z,75.12
2019-01-09T20:47:59.744Z,74.75
2019-01-09T20:50:32.074Z,75.26
2019-01-09T20:53:00.938Z,75.92
2019-01-09T20:55:30.011Z,75.18
2019-01-09T20:57:59.479Z,75.63
2019-01-09T21:00:30.074Z,75.44
2019-01-09T21:03:04.697Z,75.45
2019-01-09T21:05:36.665Z,74.98
2019-01-09T21:08:06.185Z,74.79
2019-01-09T21:10:35.249Z,74.87
2019-01-09T21:13:04.448Z,74.77
2019-01-09T21:15:34.061Z,74.99
2019-01-09T21:18:03.561Z,74.84
2019-01-09T21:20:32.455Z,75.05
2019-01-09T21:23:01.854Z,75.33
2019-01-09T21:25:30.735Z,74.99
2019-01-09T21:27:59.801Z,75.67
2019-01-09T21:30:28.811Z,75.53
2019-01-09T21:32:57.575Z,75.52
2019-01-09T21:35:26.532Z,75.57
2019-01-09T21:37:55.318Z,75.42
2019-01-09T21:40:26.392Z,75.68
2019-01-09T21:42:55.523Z,76.03
2019-01-09T21:45:24.638Z,75.77
2019-01-09T21:47:54.073Z,76.28
2019-01-09T21:50:24.994Z,76.10
2019-01-09T21:52:54.053Z,75.92
2019-01-09T21:55:23.472Z,76.08
2019-01-09T21:57:52.425Z,76.41
2019-01-09T22:00:25.353Z,76.13
2019-01-09T22:02:54.486Z,76.43
2019-01-09T22:05:24.503Z,76.43
2019-01-09T22:07:53.561Z,76.49
2019-01-09T22:10:28.497Z,76.56
2019-01-09T22:12:57.369Z,76.47
2019-01-09T22:15:26.313Z,76.34
2019-01-09T22:17:55.232Z,75.98
2019-01-09T22:20:24.487Z,75.35
2019-01-09T22:22:53.265Z,76.29
2019-01-09T22:25:22.463Z,76.24
2019-01-09T22:27:51.399Z,76.14
2019-01-09T22:30:22.729Z,75.69
2019-01-09T22:32:51.653Z,76.52
2019-01-09T22:35:20.666Z,76.04
2019-01-09T22:37:49.512Z,76.12
2019-01-09T22:40:20.891Z,76.35
2019-01-09T22:42:50.002Z,75.85
2019-01-09T22:45:18.864Z,75.96
2019-01-09T22:47:48.098Z,75.95
2019-01-09T22:50:19.168Z,75.08
2019-01-09T22:52:48.298Z,75.74
2019-01-09T22:55:17.512Z,76.14
2019-01-09T22:57:46.414Z,75.58
2019-01-09T23:00:46.556Z,75.84
2019-01-09T23:03:15.576Z,75.58
2019-01-09T23:05:44.968Z,75.37
2019-01-09T23:08:13.883Z,75.47
2019-01-09T23:10:42.860Z,74.81
2019-01-09T23:13:12.062Z,74.86
2019-01-09T23:15:56.333Z,74.72
2019-01-09T23:18:25.467Z,74.11
2019-01-09T23:20:54.256Z,74.33
2019-01-09T23:23:23.164Z,74.09
2019-01-09T23:25:52.008Z,74.31
2019-01-09T23:28:20.960Z,74.39
2019-01-09T23:30:49.986Z,74.73
2019-01-09T23:33:18.935Z,74.87
2019-01-09T23:35:48.136Z,74.86
2019-01-09T23:38:17.024Z,75.32
2019-01-09T23:40:46.134Z,74.85
2019-01-09T23:43:14.890Z,74.01
2019-01-09T23:45:43.809Z,73.72
2019-01-09T23:48:12.932Z,74.33
2019-01-09T23:50:41.805Z,73.98
2019-01-09T23:53:10.636Z,73.86
2019-01-09T23:55:39.713Z,74.35
2019-01-09T23:58:08.830Z,74.59
